Turtle River, Minnesota
Current Conditions -  °F | °C
As of 11:32 PM on Thursday 27 Nov 2014 (Local Time) from KBJI Reporting Station
Scattered Clouds Scattered Clouds  
Wind Chill: -3°   Ceiling: Unl
Heat Index:   Visibility: 10mi
Dew Point: -3°   Wind: 6mph
Humidity: 64%   Direction: 180°S
Pressure: 30.13"   Gusts: NA
Location:  47.5271°N, 94.7611°W
Report Text: KBJI 280532Z AUTO 18005KT 10SM SCT085 M14/M19 A3013 RMK AO2 T11381192
Loading
Personal Weather Stations






























Interactive Weather Map New forecast layout! Learn more

10-Day Weather Forecast

Advertisements
Track Severe Weather on mobile